Estación municipal de Seva (Osona, P.N. del Montseny)

Consulta los datos en tiempo real de la estación municipal de Seva





Hora UTC 15:45
Temperatura 31.6 ºC
Suelo 15 cm 34.9 ºC
Humedad 34.9 %
Presión 1024.8 hPa
Pluja 0.0 mm
Velocidad viento 10.7 km/h
Dirección viento SSE
Radiación solar 375.4 W/m²

Webcam

Datos diarios 2026-09-05



Hora UTC (invierno +1h; verano +2h)
Temperatura (ºC) Humedad (%) Presión (hPa) Velocidad viento (km/h) Precipitación (mm) Radiación solar (W/m²)
Hora UTC Aire Suelo 15 cm Humedad Presión Vel. Dir. Vel. Max Dir. Intent. máx 5 min. Rad. Sol.
00:05 21.3 19.3 76.2 1024.9 1.4 NE 1.4 ENE 0.0 0.1
00:10 21.2 19.2 76.4 1024.9 2.2 ENE 3.5 NE 0.0 0.1
00:15 21.1 19.2 76.8 1024.9 2.9 NE 4.2 NE 0.0 0.1
00:20 21.0 19.1 76.9 1024.9 2.9 ENE 3.9 E 0.0 0.1
00:25 20.9 19.1 76.9 1024.9 4.4 ENE 4.9 E 0.0 0.0
00:30 20.8 19.0 77.4 1024.9 3.5 E 4.2 E 0.0 0.0
00:35 20.8 18.9 77.9 1024.9 4.2 E 4.9 E 0.0 0.1
00:40 20.7 18.8 77.8 1024.9 4.5 E 6.0 E 0.0 0.1
00:45 20.7 18.8 78.0 1024.8 5.7 E 7.4 E 0.0 0.0
00:50 20.8 18.8 77.6 1024.8 5.5 ENE 7.1 E 0.0 0.1
00:55 20.8 18.8 77.4 1024.8 4.3 E 5.6 E 0.0 0.0
01:00 20.7 18.7 77.9 1024.7 3.7 E 4.6 ENE 0.0 0.1
01:05 20.6 18.6 78.3 1024.7 3.1 E 4.2 E 0.0 0.1
01:10 20.6 18.6 78.7 1024.7 3.2 E 4.6 E 0.0 0.0
01:15 20.6 18.7 78.6 1024.7 3.5 E 4.9 E 0.0 0.0
01:20 20.6 18.6 78.5 1024.8 1.1 E 3.2 E 0.0 0.1
01:25 20.4 18.5 79.0 1024.8 1.6 E 2.8 ESE 0.0 0.1
01:30 20.4 18.4 79.4 1024.8 0.9 ESE 3.5 ENE 0.0 0.1
01:35 20.3 18.2 80.0 1024.8 2.6 ENE 5.6 ENE 0.0 0.1
01:40 20.3 18.2 80.0 1024.8 3.0 ENE 3.9 E 0.0 0.0
01:45 20.3 18.2 80.0 1024.7 4.1 NE 5.6 NE 0.0 0.1
01:50 20.3 18.3 79.9 1024.7 5.0 ENE 6.4 ENE 0.0 0.0
01:55 20.3 18.3 79.8 1024.7 4.6 ENE 5.6 ENE 0.0 0.0
02:00 20.2 18.3 79.8 1024.7 4.6 ENE 5.6 ENE 0.0 0.0
02:05 20.2 18.3 79.5 1024.8 5.5 ENE 6.4 ENE 0.0 0.0
02:10 20.2 18.3 79.4 1024.8 3.9 E 5.3 E 0.0 0.1
02:15 20.3 18.2 79.2 1024.8 3.9 E 5.3 ENE 0.0 0.1
02:20 20.2 18.2 79.2 1024.7 5.6 E 7.4 ENE 0.0 0.1
02:25 20.3 18.3 78.6 1024.7 5.9 E 7.1 E 0.0 0.0
02:30 20.2 18.3 78.7 1024.7 5.0 E 6.7 ENE 0.0 0.1
02:35 20.3 18.2 78.7 1024.7 3.5 E 4.9 ENE 0.0 0.1
02:40 20.2 18.2 78.7 1024.7 3.5 ENE 3.9 ENE 0.0 0.1
02:45 20.2 18.1 78.7 1024.6 2.0 E 4.6 ENE 0.0 0.1
02:50 20.0 18.1 79.2 1024.7 0.1 ENE 1.8 ENE 0.0 0.0
02:55 19.9 18.0 80.1 1024.7 2.2 E 4.9 ENE 0.0 0.0
03:00 19.8 17.8 80.1 1024.7 2.6 N 5.6 NNW 0.0 0.1
03:05 19.8 17.7 80.7 1024.7 1.9 ESE 3.5 ESE 0.0 0.1
03:10 19.7 17.6 80.9 1024.7 1.8 WNW 5.3 WNW 0.0 0.1
03:15 19.8 17.5 80.2 1024.7 1.4 SE 2.1 SSE 0.0 0.1
03:20 19.7 17.4 80.0 1024.8 0.2 ESE 2.8 ESE 0.0 0.1
03:25 19.6 17.4 80.9 1024.8 2.2 ESE 3.9 ESE 0.0 0.1
03:30 19.5 17.4 81.3 1024.8 0.0 NNE 0.0 ESE 0.0 0.1
03:35 19.4 17.3 81.4 1024.8 0.9 ESE 2.5 ESE 0.0 0.1
03:40 19.4 17.3 81.6 1024.8 1.1 E 2.8 E 0.0 0.1
03:45 19.4 17.4 80.9 1024.8 2.5 E 3.2 E 0.0 0.0
03:50 19.3 17.4 81.0 1024.8 3.2 E 4.6 E 0.0 0.0
03:55 19.2 17.3 81.0 1024.8 3.0 ENE 4.2 NE 0.0 0.1
04:00 19.1 17.2 81.6 1024.8 1.2 ENE 3.2 NE 0.0 0.1
04:05 19.0 17.1 82.7 1024.8 0.6 E 2.8 ESE 0.0 0.1
04:10 19.0 17.1 82.4 1024.8 2.3 ESE 3.9 ESE 0.0 0.1
04:15 19.1 17.1 81.7 1024.7 4.0 E 5.6 E 0.0 0.1
04:20 19.0 17.1 81.0 1024.7 4.1 E 5.6 E 0.0 0.1
04:25 19.0 17.1 80.8 1024.7 4.0 E 5.6 ENE 0.0 0.1
04:30 19.1 17.1 80.5 1024.8 4.0 E 4.6 E 0.0 0.0
04:35 19.1 17.1 80.3 1024.8 4.5 E 5.6 E 0.0 0.1
04:40 18.9 17.1 80.8 1024.8 5.4 E 6.7 E 0.0 0.1
04:45 18.8 17.1 81.0 1024.8 5.1 E 6.0 E 0.0 0.0
04:50 18.8 17.0 81.0 1024.9 4.2 E 5.6 E 0.0 0.1
04:55 18.8 17.0 81.2 1024.9 2.9 E 4.6 E 0.0 0.1
05:00 18.8 17.0 81.1 1025.0 2.9 E 3.9 ENE 0.0 0.1
05:05 18.8 17.0 81.1 1025.0 3.5 ENE 4.2 ENE 0.0 0.2
05:10 18.8 16.9 81.1 1025.0 3.4 NE 4.2 NE 0.0 0.5
05:15 18.7 16.9 81.1 1025.0 5.0 ENE 6.4 ENE 0.0 1.1
05:20 18.7 16.9 81.3 1025.0 5.5 E 6.4 ENE 0.0 2.0
05:25 18.7 16.9 81.4 1025.0 3.6 E 5.6 E 0.0 3.0
05:30 18.8 16.9 81.0 1025.1 2.9 ENE 4.9 NNE 0.0 4.9
05:35 18.8 16.9 80.9 1025.0 3.0 ENE 4.2 ENE 0.0 8.5
05:40 18.8 17.0 80.7 1025.1 3.0 ENE 5.6 ENE 0.0 13.8
05:45 19.1 17.1 79.9 1025.1 1.8 NNE 3.5 N 0.0 19.1
05:50 19.3 17.3 78.3 1025.1 1.6 E 3.2 ESE 0.0 24.6
05:55 19.5 17.6 77.1 1025.2 1.0 E 3.5 SE 0.0 31.2
06:00 19.5 17.7 77.1 1025.2 2.8 E 3.5 ESE 0.0 41.5
06:05 19.5 17.7 76.7 1025.2 4.4 ENE 5.6 ENE 0.0 54.0
06:10 19.5 17.9 76.2 1025.2 3.2 ENE 5.6 ENE 0.0 65.4
06:15 19.7 18.1 75.3 1025.2 1.0 ESE 2.5 E 0.0 74.0
06:20 19.9 18.5 73.5 1025.3 0.0 NNE 0.0 SE 0.0 89.1
06:25 20.2 18.7 73.0 1025.3 1.5 NW 3.9 WNW 0.0 101.0
06:30 20.3 19.1 74.4 1025.4 0.3 WSW 1.4 WSW 0.0 113.3
06:35 20.4 19.4 73.5 1025.5 0.0 W 1.1 W 0.0 129.5
06:40 20.8 19.7 72.8 1025.5 0.5 NW 2.1 NNW 0.0 142.7
06:45 21.0 20.2 72.8 1025.6 1.8 NNW 4.2 NNW 0.0 156.6
06:50 21.1 20.6 71.1 1025.6 2.4 N 4.6 N 0.0 172.3
06:55 21.5 21.6 70.0 1025.6 2.4 N 3.9 N 0.0 186.2
07:00 21.8 22.1 68.5 1025.7 2.3 N 3.5 NNW 0.0 200.7
07:05 22.2 22.6 67.8 1025.7 0.8 N 2.8 NNW 0.0 215.4
07:10 22.7 23.6 65.8 1025.7 0.7 NW 2.5 NNW 0.0 229.8
07:15 22.9 24.3 63.8 1025.7 2.0 NW 3.5 NW 0.0 244.9
07:20 23.1 25.5 63.7 1025.8 0.9 NNW 2.8 N 0.0 259.5
07:25 23.6 26.7 62.6 1025.8 2.5 NNW 4.2 NNW 0.0 274.6
07:30 23.7 27.7 61.2 1025.8 3.0 NNW 5.3 NW 0.0 288.1
07:35 23.8 28.3 60.2 1025.9 3.5 N 5.6 N 0.0 303.3
07:40 23.9 28.7 59.8 1025.9 3.2 N 5.3 NNE 0.0 318.1
07:45 24.1 29.1 59.5 1025.9 2.8 NNW 4.9 NW 0.0 332.6
07:50 24.2 29.3 59.4 1025.9 4.6 NNW 6.7 NNW 0.0 346.3
07:55 24.1 29.6 60.5 1026.0 4.7 NNW 6.7 NNW 0.0 358.7
08:00 24.1 30.1 60.2 1026.0 3.4 NNW 5.6 NNW 0.0 373.0
08:05 24.5 30.7 58.2 1026.0 2.6 NW 5.3 NW 0.0 387.2
08:10 24.9 31.5 56.3 1026.0 3.4 NNW 5.3 NW 0.0 401.1
08:15 25.1 31.8 56.2 1026.0 2.7 NW 5.6 NW 0.0 413.3
08:20 25.5 31.9 54.3 1026.0 2.6 NNW 4.6 NNW 0.0 426.7
08:25 25.8 32.1 53.2 1026.0 2.4 NNW 6.0 NNE 0.0 433.5
08:30 26.2 32.5 53.1 1026.0 2.0 NNW 6.0 NNW 0.0 447.5
08:35 26.5 33.1 52.7 1026.1 3.7 NW 7.1 W 0.0 463.9
08:40 26.5 33.3 52.2 1026.1 4.4 NW 6.7 NW 0.0 476.2
08:45 26.5 33.8 52.1 1026.1 3.1 NW 6.0 WNW 0.0 487.7
08:50 26.9 34.6 51.0 1026.1 3.2 NW 7.1 W 0.0 499.1
08:55 27.3 35.1 49.8 1026.2 3.5 NW 6.4 NNW 0.0 510.2
09:00 27.4 35.5 49.6 1026.2 2.4 NW 6.7 WNW 0.0 521.4
09:05 27.8 36.2 49.4 1026.2 3.5 WNW 6.0 WNW 0.0 532.3
09:10 28.2 36.5 48.4 1026.2 3.0 W 6.0 WSW 0.0 543.2
09:15 28.5 36.6 47.6 1026.2 3.4 WNW 6.0 W 0.0 555.3
09:20 29.0 37.3 46.0 1026.2 4.2 WNW 8.5 WNW 0.0 566.1
09:25 29.3 37.5 45.6 1026.2 5.4 NW 9.5 NW 0.0 576.5
09:30 29.6 37.7 45.0 1026.2 6.5 WNW 9.5 NW 0.0 584.9
09:35 30.0 38.0 43.7 1026.2 5.1 WNW 8.8 WNW 0.0 594.9
09:40 30.6 38.6 42.1 1026.2 4.1 W 8.1 W 0.0 604.3
09:45 31.4 38.6 34.6 1026.2 6.6 S 14.8 SSE 0.0 614.4
09:50 32.4 38.5 31.6 1026.1 5.2 SSW 14.1 SSW 0.0 623.4
09:55 32.7 38.2 30.6 1026.1 8.8 S 16.9 SW 0.0 631.8
10:00 32.9 38.1 30.5 1026.1 8.2 SSE 17.6 ESE 0.0 639.2
10:05 33.0 37.9 30.7 1026.1 6.1 SSE 15.2 SE 0.0 647.2
10:10 33.0 38.0 29.8 1026.1 9.2 SSE 19.1 SSE 0.0 655.4
10:15 32.9 37.4 29.4 1026.0 9.6 SSE 21.2 SSE 0.0 662.6
10:20 33.3 37.9 29.2 1026.0 9.2 S 16.6 S 0.0 669.9
10:25 33.4 38.1 29.0 1026.0 7.5 S 15.9 SSW 0.0 677.1
10:30 33.6 38.5 28.9 1026.0 8.8 SE 18.0 SSE 0.0 682.3
10:35 33.5 38.4 28.8 1026.0 8.2 SSE 18.7 SSE 0.0 687.9
10:40 33.6 38.5 28.7 1025.9 10.1 SSE 20.1 ESE 0.0 692.8
10:45 33.4 38.1 28.9 1025.9 9.9 SSE 22.6 E 0.0 697.7
10:50 33.3 38.0 29.4 1025.9 9.6 SE 19.4 SE 0.0 702.9
10:55 33.5 38.1 29.1 1025.9 10.1 SSE 21.9 S 0.0 708.1
11:00 33.5 38.1 29.6 1025.9 7.5 SE 16.6 S 0.0 712.6
11:05 33.6 38.3 28.7 1025.9 9.2 SE 15.9 SSE 0.0 716.3
11:10 33.7 38.4 29.0 1025.8 7.9 SE 18.7 SSE 0.0 719.4
11:15 33.7 38.4 28.6 1025.8 8.5 SSE 15.5 SE 0.0 721.7
11:20 33.9 38.5 28.7 1025.8 9.4 SSE 22.6 SE 0.0 723.3
11:25 33.8 38.4 28.5 1025.8 11.7 SE 22.6 SE 0.0 725.7
11:30 33.8 38.1 28.5 1025.8 11.0 SSE 21.2 S 0.0 727.8
11:35 34.0 38.4 28.2 1025.8 9.9 SSE 20.1 SSE 0.0 729.6
11:40 34.2 38.6 28.1 1025.9 10.1 S 20.1 S 0.0 730.6
11:45 34.1 38.9 28.1 1025.9 10.7 S 25.4 SSW 0.0 731.4
11:50 34.0 38.9 28.5 1025.8 6.5 SSE 15.5 SE 0.0 732.6
11:55 34.2 39.1 28.0 1025.8 10.7 SSE 25.8 SE 0.0 732.6
12:00 34.1 39.2 28.1 1025.8 8.9 SSE 25.1 S 0.0 733.3
12:05 33.9 38.9 28.4 1025.8 10.2 SSE 22.9 S 0.0 733.1
12:10 33.9 38.7 28.3 1025.8 10.8 S 22.9 S 0.0 732.2
12:15 34.0 38.9 28.3 1025.8 11.9 S 21.2 S 0.0 731.6
12:20 34.0 38.7 27.9 1025.7 9.1 S 21.5 SSE 0.0 729.0
12:25 34.1 38.9 28.1 1025.7 12.3 S 21.9 S 0.0 727.0
12:30 33.9 38.8 28.3 1025.7 12.3 S 32.8 SSW 0.0 724.1
12:35 34.1 39.0 28.0 1025.7 9.2 SSE 21.9 S 0.0 721.7
12:40 34.1 39.1 28.0 1025.6 10.0 S 24.7 SSW 0.0 718.2
12:45 34.1 39.0 28.3 1025.6 12.7 S 25.4 SSE 0.0 714.9
12:50 34.0 39.0 28.5 1025.6 10.0 S 21.5 SSW 0.0 711.8
12:55 33.9 38.8 28.2 1025.5 13.3 S 22.2 SSE 0.0 707.0
13:00 34.0 38.9 28.7 1025.5 10.3 S 20.5 SE 0.0 701.7
13:05 33.9 38.8 28.8 1025.5 10.2 SSE 27.5 S 0.0 696.4
13:10 33.7 38.8 29.1 1025.5 11.3 SSE 27.5 SE 0.0 691.0
13:15 33.9 38.6 29.2 1025.4 10.0 S 27.5 S 0.0 685.4
13:20 34.0 39.2 28.7 1025.4 11.6 S 28.2 S 0.0 629.5
13:25 33.8 38.6 29.1 1025.4 10.8 S 23.3 SSE 0.0 667.0
13:30 33.8 38.6 29.2 1025.4 10.5 S 25.8 S 0.0 666.6
13:35 33.8 38.6 29.1 1025.3 9.2 SSE 20.1 S 0.0 660.1
13:40 33.8 38.4 28.8 1025.3 11.1 SSE 24.7 S 0.0 648.8
13:45 33.6 38.2 29.0 1025.3 12.4 S 27.5 SSW 0.0 638.6
13:50 33.7 38.4 29.1 1025.2 11.4 S 29.6 SSE 0.0 630.6
13:55 33.9 38.8 28.7 1025.2 11.1 S 24.0 SSW 0.0 619.1
14:00 33.8 38.8 29.2 1025.2 9.6 S 22.2 S 0.0 616.2
14:05 33.8 38.9 28.9 1025.2 10.2 S 20.8 SSE 0.0 607.6
14:10 33.8 38.6 29.0 1025.2 9.6 S 23.3 S 0.0 587.7
14:15 33.6 38.2 29.4 1025.2 10.1 S 24.3 S 0.0 580.0
14:20 33.5 37.9 29.5 1025.2 11.0 S 24.7 S 0.0 570.4
14:25 33.5 37.9 29.6 1025.2 11.6 SSW 27.9 SSW 0.0 564.8
14:30 33.4 37.5 29.8 1025.2 12.7 S 25.8 S 0.0 544.9
14:35 33.1 36.4 30.3 1025.1 13.3 S 29.6 SW 0.0 526.8
14:40 32.9 36.1 30.8 1025.1 12.4 S 27.9 SSW 0.0 541.1
14:45 33.0 36.3 30.9 1025.1 9.7 S 24.3 SW 0.0 529.2
14:50 33.2 36.9 30.7 1025.0 9.2 S 20.5 SSW 0.0 519.7
14:55 33.0 36.7 30.5 1025.0 14.0 SSE 27.9 S 0.0 504.9
15:00 32.6 35.9 31.7 1024.9 10.8 SSE 30.3 S 0.0 475.5
15:05 32.7 36.2 32.3 1024.9 9.3 SSE 26.5 SSE 0.0 464.9
15:10 32.4 36.1 32.6 1024.9 13.3 S 26.5 SSW 0.0 460.9
15:15 32.1 35.9 32.9 1024.9 11.9 S 22.6 SSW 0.0 452.2
15:20 32.2 35.6 32.4 1024.9 11.5 SSE 24.0 SSE 0.0 441.4
15:25 32.1 35.4 32.9 1024.9 10.5 SSE 24.3 S 0.0 427.2
15:30 32.0 35.5 33.2 1024.9 10.2 SSE 22.6 S 0.0 414.4
15:35 31.8 35.2 34.0 1024.8 11.3 SSE 26.5 SSE 0.0 411.1
15:40 31.7 35.1 34.4 1024.8 10.1 S 22.9 SSE 0.0 400.3
15:45 31.6 34.9 34.9 1024.8 10.7 SSE 21.2 SSE 0.0 375.4
Máxima 34.2 39.2 82.7 1026.2 14.0 SSE 32.8 SSW 0.0 733.3
Mínima 18.7 16.9 27.9 1024.6
Total 0.0